Time;durP1;ratioP1;P1;durP2;ratioP2;P2;SDS_P1;SDS_P2;PMS_P1;PMS_P2;Temp;Humidity;BMP_temperature;BMP_pressure;BME280_temperature;BME280_humidity;BME280_pressure;Samples;Min_cycle;Max_cycle;Signal;HPM_P1;HPM_P2
2023/10/17 00:02:53;;;;;;;40.60;21.80;;;;;;;2.24;85.55;100884.77;130243;1266;114828;-78
2023/10/17 00:05:56;;;;;;;36.50;23.40;;;;;;;2.22;85.59;100888.33;130304;1257;114731;-77
2023/10/17 00:09:00;;;;;;;39.90;23.30;;;;;;;2.19;85.62;100883.92;130321;1264;115081;-76
2023/10/17 00:12:14;;;;;;;27.30;15.90;;;;;;;2.16;85.79;100884.83;130451;1258;114776;-75
2023/10/17 00:15:27;;;;;;;36.50;23.50;;;;;;;2.12;85.84;100883.61;130310;1257;114742;-76
2023/10/17 00:18:30;;;;;;;39.30;23.40;;;;;;;2.08;85.66;100881.70;130536;1258;114850;-77
2023/10/17 00:21:33;;;;;;;36.80;23.30;;;;;;;2.05;85.78;100879.42;129902;1260;127881;-77
2023/10/17 00:24:35;;;;;;;42.90;25.30;;;;;;;2.02;85.76;100876.96;130213;1267;114773;-77
2023/10/17 00:27:37;;;;;;;43.60;24.50;;;;;;;1.98;85.84;100874.17;130353;1257;114743;-77
2023/10/17 00:30:41;;;;;;;39.40;22.80;;;;;;;1.96;85.80;100875.93;130294;1257;114746;-72
2023/10/17 00:33:48;;;;;;;38.80;23.30;;;;;;;1.93;85.78;100876.65;129954;1264;114844;-73
2023/10/17 00:36:51;;;;;;;38.00;21.00;;;;;;;1.91;85.89;100872.08;129894;1254;115447;-77
2023/10/17 00:39:56;;;;;;;36.60;20.80;;;;;;;1.89;86.13;100875.45;130312;1258;114735;-75
2023/10/17 00:42:58;;;;;;;33.00;21.60;;;;;;;1.87;85.86;100877.39;130238;1258;114808;-76
2023/10/17 00:46:01;;;;;;;32.70;19.70;;;;;;;1.85;86.17;100878.63;130206;1257;114731;-76
2023/10/17 00:49:04;;;;;;;35.70;21.60;;;;;;;1.83;86.25;100883.91;130182;1260;114753;-75
2023/10/17 00:52:24;;;;;;;34.20;20.50;;;;;;;1.80;86.37;100887.63;130232;1260;114838;-76
2023/10/17 00:55:26;;;;;;;34.20;20.60;;;;;;;1.79;86.55;100880.42;130232;1260;127808;-77
2023/10/17 00:58:28;;;;;;;32.50;20.70;;;;;;;1.77;86.39;100875.84;130404;1254;115343;-78
2023/10/17 01:01:32;;;;;;;33.70;21.50;;;;;;;1.75;86.27;100880.95;130480;1276;114794;-76
2023/10/17 01:04:40;;;;;;;38.90;22.20;;;;;;;1.72;86.41;100883.27;130438;1276;114789;-73
2023/10/17 01:07:41;;;;;;;35.50;22.40;;;;;;;1.70;86.31;100880.10;130333;1261;115012;-72
2023/10/17 01:10:44;;;;;;;34.80;21.50;;;;;;;1.69;86.62;100876.58;130503;1257;114785;-70
2023/10/17 01:13:53;;;;;;;35.00;20.80;;;;;;;1.66;86.43;100877.98;130450;1276;114760;-72
2023/10/17 01:16:55;;;;;;;34.80;21.00;;;;;;;1.65;86.58;100876.07;130371;1255;127858;-73
2023/10/17 01:20:07;;;;;;;34.80;22.10;;;;;;;1.60;86.68;100874.50;130452;1258;114750;-72
2023/10/17 01:23:10;;;;;;;34.40;20.90;;;;;;;1.58;86.47;100876.09;130267;1257;114718;-72
2023/10/17 01:26:26;;;;;;;33.50;21.30;;;;;;;1.56;86.31;100878.21;130320;1266;114822;-73
2023/10/17 01:29:28;;;;;;;40.20;23.30;;;;;;;1.52;86.48;100875.58;130373;1258;114716;-73
2023/10/17 01:32:30;;;;;;;34.20;23.00;;;;;;;1.48;86.39;100872.42;130410;1256;114732;-73
2023/10/17 01:35:32;;;;;;;44.20;27.80;;;;;;;1.44;86.60;100869.09;130297;1254;114834;-73
2023/10/17 01:38:34;;;;;;;40.10;24.50;;;;;;;1.42;86.52;100868.91;130374;1257;114735;-72
2023/10/17 01:41:47;;;;;;;40.30;24.40;;;;;;;1.40;86.66;100866.10;130339;1261;115087;-73
2023/10/17 01:44:51;;;;;;;39.70;23.60;;;;;;;1.39;86.59;100872.45;130257;1259;114813;-73
2023/10/17 01:47:53;;;;;;;46.90;27.90;;;;;;;1.35;86.47;100882.30;129930;1271;114870;-72
2023/10/17 01:50:55;;;;;;;49.30;29.20;;;;;;;1.33;86.52;100883.73;130337;1260;114755;-73
2023/10/17 01:53:57;;;;;;;54.60;30.70;;;;;;;1.30;86.51;100883.02;130334;1257;114709;-72
2023/10/17 01:57:07;;;;;;;54.50;31.10;;;;;;;1.27;86.61;100881.27;130013;1262;115249;-72
2023/10/17 02:03:31;;;;;;;75.50;42.00;;;;;;;1.21;86.56;100878.30;129935;1254;114799;-72
2023/10/17 02:06:33;;;;;;;82.00;43.80;;;;;;;1.19;86.61;100879.01;130291;1272;114648;-71
2023/10/17 02:12:40;;;;;;;73.40;39.60;;;;;;;1.14;86.46;100878.83;130400;1254;128828;-71
2023/10/17 02:15:41;;;;;;;72.70;42.10;;;;;;;1.12;86.49;100882.35;130293;1254;115395;-71
2023/10/17 02:18:45;;;;;;;68.50;38.00;;;;;;;1.10;86.80;100884.28;130314;1276;115099;-72
2023/10/17 02:21:50;;;;;;;57.20;33.20;;;;;;;1.09;86.69;100879.00;130424;1254;114709;-71
2023/10/17 02:24:56;;;;;;;58.00;32.20;;;;;;;1.08;87.00;100884.98;130089;1263;114793;-71
2023/10/17 02:27:59;;;;;;;53.50;31.60;;;;;;;1.06;86.83;100887.64;129968;1276;128061;-71
2023/10/17 02:31:00;;;;;;;50.20;27.80;;;;;;;1.05;86.92;100892.21;130271;1257;115249;-72
2023/10/17 02:34:02;;;;;;;53.40;28.80;;;;;;;1.03;86.93;100889.21;130284;1257;115202;-71
2023/10/17 02:37:10;;;;;;;45.30;26.50;;;;;;;1.02;87.27;100888.34;130227;1254;114795;-72
2023/10/17 02:40:23;;;;;;;50.10;27.20;;;;;;;1.00;87.04;100885.35;130047;1261;114837;-72
2023/10/17 02:43:25;;;;;;;42.30;25.00;;;;;;;0.98;87.10;100885.89;130368;1257;114729;-72
2023/10/17 02:46:27;;;;;;;43.30;25.60;;;;;;;0.97;87.10;100882.90;130300;1258;115225;-70
2023/10/17 02:49:36;;;;;;;36.90;24.10;;;;;;;0.95;87.05;100879.91;130309;1254;114755;-71
2023/10/17 02:52:38;;;;;;;41.90;22.70;;;;;;;0.94;86.98;100881.48;130211;1257;115439;-74
2023/10/17 02:55:40;;;;;;;43.30;23.00;;;;;;;0.91;87.05;100883.95;130301;1257;114719;-71
2023/10/17 02:58:42;;;;;;;43.10;23.90;;;;;;;0.88;87.10;100883.43;130611;1273;114752;-71
2023/10/17 03:01:45;;;;;;;44.10;23.10;;;;;;;0.86;87.12;100883.24;130032;1257;116439;-71
2023/10/17 03:04:47;;;;;;;40.80;24.10;;;;;;;0.84;87.25;100887.29;130253;1258;114728;-72
2023/10/17 03:07:51;;;;;;;35.60;22.30;;;;;;;0.84;87.41;100895.38;130242;1257;115487;-72
2023/10/17 03:10:59;;;;;;;41.00;23.90;;;;;;;0.82;87.07;100897.66;130428;1257;114747;-73
2023/10/17 03:14:19;;;;;;;42.20;25.70;;;;;;;0.80;87.14;100897.49;130115;1258;115433;-72
2023/10/17 03:17:21;;;;;;;41.70;22.20;;;;;;;0.78;87.17;100898.55;130239;1268;115068;-71
2023/10/17 03:20:36;;;;;;;38.90;23.40;;;;;;;0.76;87.19;100900.65;130086;1257;114789;-71
2023/10/17 03:23:46;;;;;;;43.80;25.10;;;;;;;0.74;87.12;100902.06;130174;1257;129086;-72
2023/10/17 03:26:55;;;;;;;40.60;23.70;;;;;;;0.72;87.25;100905.59;127519;1258;3329591;-71
2023/10/17 03:30:07;;;;;;;44.60;26.20;;;;;;;0.70;86.85;100904.69;129966;1257;114847;-71
2023/10/17 03:33:25;;;;;;;55.50;30.60;;;;;;;0.67;87.07;100907.50;130382;1254;115358;-72
2023/10/17 03:39:50;;;;;;;73.60;35.30;;;;;;;0.64;87.45;100913.13;130158;1256;128216;-71
2023/10/17 03:42:55;;;;;;;94.60;37.10;;;;;;;0.62;87.85;100912.95;130223;1257;115241;-71
2023/10/17 03:46:04;;;;;;;76.80;34.80;;;;;;;0.59;88.03;100915.05;130059;1264;115006;-72
2023/10/17 03:49:06;;;;;;;88.40;38.20;;;;;;;0.55;88.06;100912.59;130086;1255;114900;-73
2023/10/17 03:52:08;;;;;;;94.10;42.20;;;;;;;0.51;88.04;100913.81;130317;1257;114813;-72
2023/10/17 03:55:10;;;;;;;78.60;37.70;;;;;;;0.50;88.14;100913.64;130320;1258;115151;-72
2023/10/17 03:58:49;;;;;;;78.80;41.10;;;;;;;0.47;88.14;100914.50;130270;1257;128544;-71
2023/10/17 04:01:35;;;;;;;76.00;40.10;;;;;;;0.44;88.44;100913.27;130024;1271;115087;-71
2023/10/17 04:04:46;;;;;;;73.40;40.90;;;;;;;0.44;88.54;100912.74;130265;1267;115520;-72
2023/10/17 04:07:52;;;;;;;74.10;42.50;;;;;;;0.44;88.30;100912.73;130328;1254;115116;-74
2023/10/17 04:11:08;;;;;;;75.10;42.80;;;;;;;0.43;88.43;100916.77;130307;1257;114793;-77
2023/10/17 04:14:10;;;;;;;75.40;42.30;;;;;;;0.43;88.68;100916.08;130224;1272;128258;-75
2023/10/17 04:17:15;;;;;;;90.50;47.90;;;;;;;0.44;88.78;100914.32;130417;1254;114778;-74
2023/10/17 04:20:18;;;;;;;90.40;46.90;;;;;;;0.46;88.64;100908.71;130474;1269;114729;-71
2023/10/17 04:23:26;;;;;;;79.20;45.80;;;;;;;0.48;88.62;100906.25;130471;1257;114647;-70
2023/10/17 04:26:28;;;;;;;114.10;48.70;;;;;;;0.48;88.58;100905.73;130400;1256;114823;-72
2023/10/17 04:29:30;;;;;;;107.90;44.10;;;;;;;0.50;88.72;100911.17;130234;1256;115262;-72
2023/10/17 04:32:38;;;;;;;87.60;45.70;;;;;;;0.50;88.76;100913.11;130511;1254;114753;-72
2023/10/17 04:35:46;;;;;;;96.50;46.90;;;;;;;0.50;88.85;100910.99;130333;1260;115329;-71
2023/10/17 04:39:10;;;;;;;85.30;43.70;;;;;;;0.50;88.87;100913.98;130395;1257;115398;-71
2023/10/17 04:42:11;;;;;;;86.60;47.40;;;;;;;0.52;88.87;100921.02;130303;1254;115015;-72
2023/10/17 04:45:55;;;;;;;72.80;42.30;;;;;;;0.53;89.00;100921.55;130256;1256;115376;-73
2023/10/17 04:48:46;;;;;;;84.40;43.70;;;;;;;0.55;88.99;100917.86;130325;1257;128456;-72
2023/10/17 04:51:53;;;;;;;87.00;42.10;;;;;;;0.56;88.97;100921.73;129938;1257;115266;-71
2023/10/17 04:55:01;;;;;;;77.30;37.30;;;;;;;0.57;89.17;100922.27;130037;1261;114929;-72
2023/10/17 04:58:30;;;;;;;76.80;39.40;;;;;;;0.56;88.92;100926.11;130451;1256;114723;-71
2023/10/17 05:08:18;;;;;;;73.80;37.30;;;;;;;0.56;89.46;100926.48;130274;1256;114866;-73
2023/10/17 06:18:19;;;;;;;44.20;24.00;;;;;;;1.96;90.13;100972.83;129944;1257;114795;-72
2023/10/17 06:21:36;;;;;;;53.30;24.50;;;;;;;2.01;90.31;100973.16;130395;1257;115234;-73
2023/10/17 06:34:07;;;;;;;62.80;29.70;;;;;;;2.23;90.39;100970.79;130344;1254;115196;-73
2023/10/17 06:37:11;;;;;;;44.80;26.40;;;;;;;2.33;90.52;100968.80;130451;1256;114820;-72
2023/10/17 06:40:15;;;;;;;44.20;26.80;;;;;;;2.43;90.50;100975.27;130177;1254;114780;-73
2023/10/17 06:43:29;;;;;;;37.80;26.80;;;;;;;2.50;90.48;100976.45;130338;1257;114764;-73
2023/10/17 06:53:10;;;;;;;49.90;27.10;;;;;;;2.73;90.39;100977.75;130116;1259;114816;-72
2023/10/17 06:56:13;;;;;;;50.70;25.80;;;;;;;2.82;90.50;100985.62;130186;1276;114804;-72
2023/10/17 06:59:24;;;;;;;44.90;24.80;;;;;;;2.86;90.20;100987.73;130328;1272;114828;-72
2023/10/17 07:02:31;;;;;;;49.10;25.50;;;;;;;2.85;90.12;100987.21;130276;1253;115343;-72
2023/10/17 07:05:35;;;;;;;48.80;24.40;;;;;;;2.89;90.15;100991.05;129944;1254;114848;-73
2023/10/17 07:08:37;;;;;;;47.20;25.30;;;;;;;2.95;90.21;100991.02;129981;1263;114709;-72
2023/10/17 07:11:43;;;;;;;53.00;25.20;;;;;;;2.98;90.41;101000.52;130151;1257;114804;-72
2023/10/17 07:14:48;;;;;;;52.50;26.30;;;;;;;3.01;90.29;101004.56;129994;1260;128066;-73
2023/10/17 07:24:16;;;;;;;49.70;28.90;;;;;;;3.28;90.51;101000.29;130338;1253;114723;-72
2023/10/17 07:27:19;;;;;;;54.70;27.60;;;;;;;3.38;90.44;100999.33;130391;1254;114720;-71
2023/10/17 07:30:34;;;;;;;49.40;28.80;;;;;;;3.48;90.39;101000.31;130342;1256;114834;-72
2023/10/17 07:33:41;;;;;;;51.50;29.00;;;;;;;3.68;90.87;101002.07;130431;1257;115151;-72
2023/10/17 07:36:44;;;;;;;55.90;32.80;;;;;;;3.91;91.02;101005.00;130322;1254;115261;-73
2023/10/17 07:43:07;;;;;;;68.00;35.80;;;;;;;4.39;91.21;101004.45;130260;1254;114751;-73
2023/10/17 07:46:18;;;;;;;68.90;33.50;;;;;;;4.59;90.91;100997.30;130294;1254;114727;-73
2023/10/17 07:49:26;;;;;;;69.00;35.40;;;;;;;4.74;90.70;100991.27;130352;1276;115179;-73
2023/10/17 07:52:31;;;;;;;51.60;31.10;;;;;;;4.89;90.61;100994.58;130347;1276;115085;-73
2023/10/17 07:55:36;;;;;;;68.10;35.00;;;;;;;5.02;90.45;100989.95;130055;1263;114751;-73
2023/10/17 07:58:45;;;;;;;54.00;32.40;;;;;;;5.15;90.46;100986.04;130380;1257;114822;-73
2023/10/17 08:01:50;;;;;;;65.40;32.90;;;;;;;5.31;90.53;100989.13;130273;1254;127808;-72
2023/10/17 08:04:53;;;;;;;59.30;33.00;;;;;;;5.50;90.38;100993.59;130355;1254;114762;-73
2023/10/17 08:08:04;;;;;;;58.80;31.80;;;;;;;5.69;90.40;100992.56;130422;1257;114748;-73
2023/10/17 08:11:31;;;;;;;52.10;31.90;;;;;;;5.90;90.37;100990.05;130351;1256;114764;-75
2023/10/17 08:14:45;;;;;;;49.60;30.00;;;;;;;6.18;90.62;100990.60;130312;1276;114808;-77
2023/10/17 08:17:48;;;;;;;44.50;27.40;;;;;;;6.49;90.40;100994.59;130280;1253;127572;-77
2023/10/17 08:24:07;;;;;;;44.50;28.90;;;;;;;6.90;89.49;100995.25;130178;1261;114862;-72
2023/10/17 08:30:40;;;;;;;50.20;30.50;;;;;;;7.29;89.49;100990.06;130296;1276;114939;-75
2023/10/17 08:33:44;;;;;;;52.50;30.90;;;;;;;7.51;89.59;100994.31;130467;1276;114776;-75
2023/10/17 08:36:53;;;;;;;46.30;28.80;;;;;;;7.76;89.57;100989.42;130489;1272;115533;-76
2023/10/17 08:39:56;;;;;;;47.80;28.00;;;;;;;7.98;89.12;100991.31;130415;1256;114697;-76
2023/10/17 08:43:20;;;;;;;45.00;29.80;;;;;;;8.18;89.24;100988.63;130405;1256;114736;-74
2023/10/17 08:46:23;;;;;;;46.40;28.00;;;;;;;8.40;88.37;100989.95;130312;1254;114752;-79
2023/10/17 08:49:28;;;;;;;49.10;31.00;;;;;;;8.59;88.29;100989.59;130542;1255;114642;-77
2023/10/17 08:52:35;;;;;;;54.50;31.70;;;;;;;8.75;88.20;100988.23;130432;1276;114744;-75
2023/10/17 08:55:40;;;;;;;47.20;30.50;;;;;;;8.92;87.94;100984.30;130387;1254;114795;-77
2023/10/17 08:58:43;;;;;;;51.30;29.00;;;;;;;9.08;87.83;100983.80;130442;1253;114843;-78
2023/10/17 09:02:15;;;;;;;51.80;32.40;;;;;;;9.26;87.73;100979.83;130365;1257;114737;-78
2023/10/17 09:05:26;;;;;;;45.70;29.30;;;;;;;9.47;87.08;100974.67;130691;1254;127550;-76
2023/10/17 09:09:17;;;;;;;47.30;30.60;;;;;;;9.61;87.31;100976.34;130253;1254;115218;-77
2023/10/17 09:15:35;;;;;;;36.40;23.60;;;;;;;10.02;86.67;100976.66;129849;1258;114837;-75
2023/10/17 09:18:40;;;;;;;35.50;22.50;;;;;;;10.19;86.56;100975.69;130397;1277;114792;-75
2023/10/17 09:21:47;;;;;;;;;;;;;;;10.36;85.83;100972.95;130295;1257;128997;-76
2023/10/17 09:24:50;;;;;;;36.30;21.60;;;;;;;10.45;85.17;100975.66;130195;1254;115363;-76
2023/10/17 09:27:56;;;;;;;39.10;23.40;;;;;;;10.54;85.36;100976.38;130426;1253;115013;-76
2023/10/17 09:31:24;;;;;;;39.10;24.00;;;;;;;10.64;84.62;100976.89;130262;1270;114702;-76
2023/10/17 09:34:26;;;;;;;31.80;21.00;;;;;;;10.72;84.41;100974.27;130235;1266;114794;-76
2023/10/17 09:37:28;;;;;;;35.30;21.10;;;;;;;10.77;84.21;100968.14;130543;1254;128662;-77
2023/10/17 09:40:31;;;;;;;29.40;19.50;;;;;;;10.94;84.54;100963.02;130658;1258;115251;-77
2023/10/17 09:43:36;;;;;;;27.00;16.80;;;;;;;11.08;84.21;100965.85;130612;1252;114751;-77
2023/10/17 09:46:39;;;;;;;25.60;17.40;;;;;;;11.17;83.60;100963.02;130586;1256;114833;-67
2023/10/17 09:49:48;;;;;;;20.90;16.40;;;;;;;11.20;83.25;100963.74;130285;1256;114813;-67
2023/10/17 09:52:54;;;;;;;24.70;17.10;;;;;;;11.29;82.99;100965.35;130299;1259;128800;-68
2023/10/17 09:56:00;;;;;;;27.70;19.50;;;;;;;11.35;82.53;100960.45;130174;1256;115244;-66
2023/10/17 09:59:07;;;;;;;25.20;18.40;;;;;;;11.42;82.52;100955.88;130172;1254;114802;-66
2023/10/17 10:02:09;;;;;;;24.90;17.60;;;;;;;11.51;82.37;100949.05;129948;1257;114815;-68
2023/10/17 10:05:28;;;;;;;18.50;14.90;;;;;;;11.65;82.19;100946.30;130288;1260;115221;-67
2023/10/17 10:08:33;;;;;;;22.60;15.90;;;;;;;11.81;82.21;100946.14;130466;1253;127739;-69
2023/10/17 10:11:48;;;;;;;24.10;14.30;;;;;;;11.95;82.12;100940.70;130344;1260;115426;-64
2023/10/17 10:14:50;;;;;;;22.40;14.70;;;;;;;12.01;81.29;100937.42;130066;1257;114819;-66
2023/10/17 10:17:53;;;;;;;19.80;12.90;;;;;;;12.06;81.06;100931.83;130345;1256;114858;-67
2023/10/17 10:20:58;;;;;;;21.10;13.30;;;;;;;12.12;80.49;100931.02;130346;1256;114746;-64
2023/10/17 10:24:00;;;;;;;20.80;13.60;;;;;;;12.14;80.63;100931.96;130030;1273;127742;-64
2023/10/17 10:27:14;;;;;;;22.00;12.80;;;;;;;12.21;80.51;100929.52;130359;1256;114831;-65
2023/10/17 10:30:38;;;;;;;19.60;12.30;;;;;;;12.27;80.08;100925.64;130364;1257;114695;-67
2023/10/17 10:33:40;;;;;;;16.00;10.90;;;;;;;12.35;80.12;100917.94;130096;1258;115690;-66
2023/10/17 10:36:42;;;;;;;14.60;9.70;;;;;;;12.43;79.85;100913.96;130328;1254;114715;-66
2023/10/17 10:40:14;;;;;;;18.30;10.60;;;;;;;12.49;79.30;100908.35;130293;1257;114938;-62
2023/10/17 10:43:18;;;;;;;16.40;10.60;;;;;;;12.54;79.08;100904.67;129805;1254;128528;-63
2023/10/17 10:46:22;;;;;;;15.60;11.30;;;;;;;12.58;78.54;100897.33;129993;1257;115378;-63
2023/10/17 10:49:26;;;;;;;19.20;10.60;;;;;;;12.64;78.31;100893.98;130342;1258;114736;-67
2023/10/17 10:52:28;;;;;;;14.40;9.70;;;;;;;12.70;78.36;100894.77;130163;1260;114896;-64
2023/10/17 10:55:30;;;;;;;17.20;8.80;;;;;;;12.75;77.36;100891.86;130273;1276;114908;-61
2023/10/17 10:58:34;;;;;;;15.20;8.80;;;;;;;12.67;76.50;100884.88;129867;1257;115572;-63
2023/10/17 11:01:36;;;;;;;12.00;8.80;;;;;;;12.66;76.29;100881.34;129498;1259;129029;-62
2023/10/17 11:04:38;;;;;;;17.20;8.60;;;;;;;12.65;75.97;100879.08;129864;1257;114753;-63
2023/10/17 11:07:41;;;;;;;12.40;8.60;;;;;;;12.59;75.29;100873.81;129976;1276;114836;-64
2023/10/17 11:10:42;;;;;;;16.20;9.00;;;;;;;12.58;75.69;100877.95;130018;1256;115013;-63
2023/10/17 11:13:52;;;;;;;10.70;7.50;;;;;;;12.59;75.09;100872.71;130054;1256;114895;-63
2023/10/17 11:16:57;;;;;;;12.20;7.70;;;;;;;12.60;75.05;100871.23;129825;1254;114773;-70
2023/10/17 11:19:59;;;;;;;13.40;6.70;;;;;;;12.66;75.08;100867.77;129782;1259;129006;-61
2023/10/17 11:23:04;;;;;;;11.20;6.20;;;;;;;12.70;74.44;100863.80;130547;1254;114734;-63
2023/10/17 11:26:12;;;;;;;15.40;6.50;;;;;;;12.70;74.35;100860.55;129737;1272;115547;-63
2023/10/17 11:29:13;;;;;;;12.00;6.70;;;;;;;12.72;73.63;100860.46;130415;1254;114791;-64
2023/10/17 11:32:16;;;;;;;11.80;6.00;;;;;;;12.73;73.37;100850.02;130327;1256;114805;-76
2023/10/17 11:35:29;;;;;;;8.70;6.10;;;;;;;12.74;72.82;100846.34;130357;1254;114769;-77
2023/10/17 11:38:46;;;;;;;9.10;5.40;;;;;;;12.71;72.47;100842.38;130054;1254;126530;-74
2023/10/17 11:41:53;;;;;;;8.20;5.30;;;;;;;12.64;71.78;100833.77;130391;1257;116577;-77
2023/10/17 11:44:55;;;;;;;6.60;4.50;;;;;;;12.61;71.73;100832.48;130157;1260;114917;-76
2023/10/17 11:47:57;;;;;;;6.20;4.50;;;;;;;12.58;71.54;100831.90;130302;1256;114721;-70
2023/10/17 11:51:04;;;;;;;7.40;4.60;;;;;;;12.59;71.39;100829.71;130337;1256;114802;-77
2023/10/17 11:54:07;;;;;;;8.40;4.00;;;;;;;12.60;70.74;100823.94;130364;1256;114773;-77
2023/10/17 11:57:12;;;;;;;8.70;5.20;;;;;;;12.65;70.59;100828.39;130446;1256;114747;-74
2023/10/17 12:03:19;;;;;;;8.60;4.40;;;;;;;12.75;70.31;100821.02;130443;1257;114736;-79
2023/10/17 12:06:23;;;;;;;7.90;5.00;;;;;;;12.79;69.89;100818.33;130440;1259;115195;-76
2023/10/17 12:09:25;;;;;;;7.50;4.40;;;;;;;12.82;69.68;100813.52;130191;1260;114810;-78
2023/10/17 12:12:28;;;;;;;6.10;4.20;;;;;;;12.88;70.20;100805.84;130386;1254;114730;-78
2023/10/17 12:15:30;;;;;;;4.80;3.80;;;;;;;12.96;70.16;100804.94;130611;1256;114734;-79
2023/10/17 12:18:33;;;;;;;7.60;5.00;;;;;;;12.99;69.73;100801.35;130524;1256;115078;-71
2023/10/17 12:21:35;;;;;;;10.10;5.40;;;;;;;12.99;69.06;100798.33;130310;1253;114719;-76
2023/10/17 12:24:38;;;;;;;6.40;4.50;;;;;;;12.90;68.63;100798.96;130397;1256;114737;-79
2023/10/17 12:27:40;;;;;;;11.00;5.00;;;;;;;12.90;69.00;100796.61;130440;1257;114732;-79
2023/10/17 12:30:42;;;;;;;9.40;5.00;;;;;;;12.91;68.69;100794.96;130564;1254;114729;-78
2023/10/17 12:33:45;;;;;;;9.20;5.70;;;;;;;12.89;68.28;100789.68;130409;1254;128577;-76
2023/10/17 12:36:48;;;;;;;7.70;4.60;;;;;;;12.85;68.06;100788.98;130418;1255;115996;-78
2023/10/17 12:39:50;;;;;;;7.60;4.60;;;;;;;12.82;67.35;100787.92;130478;1256;114711;-79
2023/10/17 12:42:55;;;;;;;8.50;5.00;;;;;;;12.77;67.50;100789.03;130477;1257;115101;-72
2023/10/17 12:45:57;;;;;;;14.50;7.00;;;;;;;12.75;67.40;100785.89;130239;1254;114802;-74
2023/10/17 12:48:59;;;;;;;9.90;7.00;;;;;;;12.71;67.09;100780.71;130584;1256;115193;-75
2023/10/17 12:52:01;;;;;;;23.60;14.60;;;;;;;12.67;66.52;100780.38;130474;1254;114638;-77
2023/10/17 12:55:07;;;;;;;19.90;14.60;;;;;;;12.61;66.73;100783.38;130175;1261;114703;-77
2023/10/17 12:58:12;;;;;;;11.50;6.20;;;;;;;12.58;66.56;100780.48;130193;1261;114838;-77
2023/10/17 13:01:14;;;;;;;9.40;5.60;;;;;;;12.57;66.56;100778.95;130141;1260;114912;-77
2023/10/17 13:04:16;;;;;;;10.30;5.90;;;;;;;12.53;66.55;100774.11;130614;1256;114821;-78
2023/10/17 13:07:18;;;;;;;6.80;4.80;;;;;;;12.55;66.81;100771.85;130654;1256;114821;-79
2023/10/17 13:10:20;;;;;;;9.20;5.30;;;;;;;12.57;66.47;100768.92;130358;1254;128946;-78
2023/10/17 13:13:22;;;;;;;10.20;5.20;;;;;;;12.59;67.07;100770.38;130428;1254;115036;-77
2023/10/17 13:16:26;;;;;;;9.20;5.30;;;;;;;12.64;66.63;100768.04;130457;1256;114703;-74
2023/10/17 13:19:33;;;;;;;7.50;5.30;;;;;;;12.62;66.14;100765.79;130121;1254;114942;-78
2023/10/17 13:22:40;;;;;;;5.60;4.40;;;;;;;12.61;66.08;100767.27;130386;1256;114799;-75
2023/10/17 13:25:43;;;;;;;9.90;5.90;;;;;;;12.57;65.71;100765.99;129930;1254;114914;-79
2023/10/17 13:28:45;;;;;;;8.40;5.10;;;;;;;12.55;65.79;100769.36;130161;1276;127031;-80
2023/10/17 13:31:47;;;;;;;6.10;4.70;;;;;;;12.52;66.04;100764.65;130482;1256;114728;-79
2023/10/17 13:34:51;;;;;;;7.30;5.60;;;;;;;12.50;66.36;100756.72;130492;1256;114770;-78
2023/10/17 13:37:54;;;;;;;6.20;4.90;;;;;;;12.48;65.95;100753.02;130560;1256;114779;-78
2023/10/17 13:41:09;;;;;;;10.50;6.70;;;;;;;12.47;66.28;100753.61;130249;1254;115485;-79
2023/10/17 13:44:11;;;;;;;12.20;5.70;;;;;;;12.45;66.22;100747.99;130413;1256;114734;-78
2023/10/17 13:47:13;;;;;;;6.90;4.40;;;;;;;12.42;65.97;100748.69;130485;1254;115022;-69
2023/10/17 13:50:19;;;;;;;10.10;6.60;;;;;;;12.38;65.63;100748.88;130495;1267;114945;-75
2023/10/17 13:53:21;;;;;;;7.60;5.40;;;;;;;12.38;65.59;100748.91;130180;1256;115407;-69
2023/10/17 13:56:23;;;;;;;6.40;4.40;;;;;;;12.38;65.20;100742.82;130509;1256;115202;-71
2023/10/17 13:59:38;;;;;;;8.00;4.50;;;;;;;12.33;64.13;100743.59;130573;1257;114707;-79
2023/10/17 14:02:40;;;;;;;;;;;;;;;12.28;63.97;100743.80;130471;1276;114805;-78
2023/10/17 14:05:49;;;;;;;8.70;5.70;;;;;;;12.27;64.88;100736.52;130422;1254;115789;-78
2023/10/17 14:08:51;;;;;;;6.90;4.70;;;;;;;12.28;65.22;100735.23;130390;1276;115218;-74
2023/10/17 14:11:53;;;;;;;7.00;4.60;;;;;;;12.27;64.42;100735.27;130614;1256;114761;-79
2023/10/17 14:14:55;;;;;;;7.00;4.50;;;;;;;12.25;64.70;100735.20;130470;1254;114764;-80
2023/10/17 14:18:00;;;;;;;7.50;4.80;;;;;;;12.25;65.16;100734.64;130125;1261;114732;-75
2023/10/17 14:21:16;;;;;;;8.70;4.80;;;;;;;12.25;64.87;100735.72;130250;1276;115330;-75
2023/10/17 14:24:27;;;;;;;6.60;4.50;;;;;;;12.24;65.50;100736.84;130246;1258;126851;-77
2023/10/17 14:27:29;;;;;;;7.40;4.60;;;;;;;12.24;65.88;100741.90;130285;1270;115320;-78
2023/10/17 14:30:31;;;;;;;7.30;4.30;;;;;;;12.23;65.77;100740.14;130293;1259;114805;-77
2023/10/17 14:33:34;;;;;;;5.40;4.30;;;;;;;12.21;66.23;100730.04;130406;1259;114791;-75
2023/10/17 14:36:36;;;;;;;9.50;4.80;;;;;;;12.17;65.94;100731.80;130432;1277;114744;-71
2023/10/17 14:39:38;;;;;;;8.90;4.60;;;;;;;12.14;66.13;100734.31;130307;1254;115218;-74
2023/10/17 14:42:40;;;;;;;6.70;5.20;;;;;;;12.09;65.97;100727.38;130410;1259;114807;-73
2023/10/17 14:45:44;;;;;;;6.90;4.20;;;;;;;12.03;65.43;100723.38;130294;1257;128808;-72
2023/10/17 14:48:47;;;;;;;7.20;5.00;;;;;;;11.97;65.65;100726.52;130342;1259;114747;-74
2023/10/17 14:51:49;;;;;;;8.30;4.90;;;;;;;11.90;65.33;100726.67;130209;1254;114869;-73
2023/10/17 14:54:51;;;;;;;10.20;5.20;;;;;;;11.84;65.54;100723.73;130298;1259;114814;-75
2023/10/17 14:57:53;;;;;;;8.30;5.40;;;;;;;11.79;65.91;100718.06;130284;1259;114716;-73
2023/10/17 15:00:55;;;;;;;15.00;6.40;;;;;;;11.75;65.99;100717.20;130315;1269;115355;-70
2023/10/17 15:03:59;;;;;;;8.40;5.00;;;;;;;11.67;65.36;100718.25;130417;1277;114758;-72
2023/10/17 15:07:03;;;;;;;7.70;5.00;;;;;;;11.59;65.60;100718.67;130482;1259;129884;-75
2023/10/17 15:10:12;;;;;;;6.90;3.50;;;;;;;11.53;66.10;100720.89;130314;1254;114802;-75
2023/10/17 15:13:15;;;;;;;7.80;5.00;;;;;;;11.44;66.68;100710.04;130545;1259;114749;-75
2023/10/17 15:16:21;;;;;;;8.90;4.70;;;;;;;11.36;66.76;100706.66;130562;1253;114773;-76
2023/10/17 15:19:26;;;;;;;8.20;4.40;;;;;;;11.26;67.24;100705.65;130516;1257;114739;-74
2023/10/17 15:22:28;;;;;;;10.70;5.10;;;;;;;11.15;66.92;100706.70;130191;1259;128349;-73
2023/10/17 15:25:30;;;;;;;8.10;5.00;;;;;;;11.03;67.50;100707.05;130437;1254;114696;-70
2023/10/17 15:28:34;;;;;;;10.60;7.00;;;;;;;10.91;67.78;100708.48;128117;1267;3201027;-74
2023/10/17 15:31:36;;;;;;;22.00;11.70;;;;;;;10.78;67.99;100707.27;130565;1257;115083;-72
2023/10/17 15:34:38;;;;;;;20.10;9.40;;;;;;;10.66;68.30;100708.88;130391;1254;114729;-74
2023/10/17 15:37:46;;;;;;;15.60;8.90;;;;;;;10.53;68.57;100709.44;130521;1254;115187;-68
2023/10/17 15:40:50;;;;;;;15.60;8.00;;;;;;;10.40;68.58;100719.60;130259;1261;114962;-69
2023/10/17 15:43:52;;;;;;;19.00;8.50;;;;;;;10.27;68.69;100724.59;130342;1260;114880;-72
2023/10/17 15:46:54;;;;;;;13.50;7.90;;;;;;;10.14;69.14;100718.16;130426;1254;114839;-73
2023/10/17 15:49:56;;;;;;;14.20;8.20;;;;;;;10.03;69.11;100715.75;130507;1259;115076;-73
2023/10/17 15:52:58;;;;;;;16.60;10.80;;;;;;;9.91;69.29;100707.65;130180;1259;114803;-71
2023/10/17 15:56:02;;;;;;;13.90;9.00;;;;;;;9.78;69.78;100703.53;130439;1259;114714;-74
2023/10/17 15:59:04;;;;;;;9.50;7.30;;;;;;;9.62;69.52;100700.39;130385;1260;114790;-74